Time;durP1;ratioP1;P1;durP2;ratioP2;P2;SDS_P1;SDS_P2;PMS_P1;PMS_P2;Temp;Humidity;BMP_temperature;BMP_pressure;BME280_temperature;BME280_humidity;BME280_pressure;Samples;Min_cycle;Max_cycle;Signal;HPM_P1;HPM_P2
2022/03/27 00:01:22;;;;;;;21.42;11.12;;;10.60;99.90;;;;;;6768409;87;20153;-80
2022/03/27 00:11:27;;;;;;;20.58;11.38;;;10.40;99.90;;;;;;6767946;87;20236;-80
2022/03/27 00:21:28;;;;;;;21.25;11.07;;;10.30;99.90;;;;;;6767955;87;20208;-81
2022/03/27 00:31:35;;;;;;;24.60;11.93;;;10.20;99.90;;;;;;6767662;87;20173;-80
2022/03/27 00:41:36;;;;;;;23.40;11.45;;;10.20;99.90;;;;;;6767609;87;20807;-80
2022/03/27 00:51:37;;;;;;;25.12;12.45;;;10.00;99.90;;;;;;6767132;88;20192;-80
2022/03/27 01:01:39;;;;;;;24.10;12.18;;;9.70;99.90;;;;;;6766941;87;20336;-81
2022/03/27 01:11:40;;;;;;;27.08;13.73;;;9.70;99.90;;;;;;6767090;87;20701;-80
2022/03/27 01:21:46;;;;;;;21.90;11.70;;;9.60;99.90;;;;;;6766881;87;20211;-80
2022/03/27 01:31:47;;;;;;;;;;;9.50;99.90;;;;;;6765230;87;20263;-78
2022/03/27 01:41:48;;;;;;;21.60;12.00;;;9.30;99.90;;;;;;6775708;87;20091;-78
2022/03/27 01:51:48;;;;;;;23.02;12.30;;;9.20;99.90;;;;;;6782415;87;20202;-79
2022/03/27 02:01:50;;;;;;;27.40;12.93;;;9.00;99.90;;;;;;6747612;88;20228;-81
2022/03/27 02:11:50;;;;;;;23.05;12.37;;;9.00;99.90;;;;;;6746861;88;20181;-81
2022/03/27 02:21:51;;;;;;;26.60;12.05;;;8.90;99.90;;;;;;6746820;88;20176;-79
2022/03/27 02:31:52;;;;;;;25.25;11.88;;;8.70;99.90;;;;;;6775423;87;20723;-80
2022/03/27 02:41:55;;;;;;;21.45;11.82;;;8.60;99.90;;;;;;6783900;87;20156;-80
2022/03/27 02:51:56;;;;;;;23.85;12.10;;;8.50;99.90;;;;;;6783866;87;20184;-78
2022/03/27 03:01:57;;;;;;;22.87;12.35;;;8.30;99.90;;;;;;6783242;87;20235;-79
2022/03/27 03:11:57;;;;;;;23.12;12.55;;;8.10;99.90;;;;;;6746599;88;20162;-78
2022/03/27 03:21:58;;;;;;;29.42;12.48;;;8.00;99.90;;;;;;6711291;88;20939;-80
2022/03/27 03:31:59;;;;;;;22.62;11.70;;;7.50;99.90;;;;;;6693808;88;21025;-80
2022/03/27 03:41:59;;;;;;;21.50;11.35;;;7.60;99.90;;;;;;6707321;88;20250;-80
2022/03/27 03:52:41;;;;;;;23.38;12.18;;;7.80;99.90;;;;;;6747984;78;20727;-81
2022/03/27 04:02:41;;;;;;;21.98;11.45;;;7.70;99.90;;;;;;6776030;88;20193;-81
2022/03/27 04:12:41;;;;;;;21.25;11.52;;;7.40;99.90;;;;;;6774926;88;20310;-81
2022/03/27 04:22:43;;;;;;;21.92;11.77;;;7.30;99.90;;;;;;6776477;88;20196;-81
2022/03/27 04:32:44;;;;;;;23.92;12.15;;;7.40;99.90;;;;;;6775976;88;20210;-81
2022/03/27 04:42:45;;;;;;;22.52;11.65;;;7.30;99.90;;;;;;6774241;88;20204;-80
2022/03/27 04:52:45;;;;;;;22.65;11.93;;;7.30;99.90;;;;;;6774537;88;20215;-80
2022/03/27 05:02:46;;;;;;;23.25;12.07;;;7.50;99.90;;;;;;6774190;88;20895;-81
2022/03/27 05:12:46;;;;;;;22.48;11.60;;;7.00;99.90;;;;;;6775283;88;20164;-80
2022/03/27 05:22:47;;;;;;;21.25;11.80;;;7.10;99.90;;;;;;6775000;88;20500;-80
2022/03/27 05:32:49;;;;;;;25.35;12.13;;;6.90;99.90;;;;;;6775611;88;20183;-80
2022/03/27 05:42:50;;;;;;;26.27;12.73;;;6.80;99.90;;;;;;6776545;88;20171;-81
2022/03/27 05:52:52;;;;;;;28.38;13.88;;;6.80;99.90;;;;;;6775340;88;20649;-81
2022/03/27 06:02:53;;;;;;;25.62;12.82;;;6.60;99.90;;;;;;6774437;88;20239;-80
2022/03/27 06:12:53;;;;;;;23.98;12.23;;;6.60;99.90;;;;;;6766127;88;20700;-80
2022/03/27 06:22:55;;;;;;;24.65;12.37;;;6.70;99.90;;;;;;6769105;88;20278;-79
2022/03/27 06:32:56;;;;;;;22.77;12.45;;;6.90;99.90;;;;;;6767617;88;20183;-80
2022/03/27 06:42:57;;;;;;;26.50;12.93;;;7.30;99.90;;;;;;6769249;88;20199;-79
2022/03/27 06:52:57;;;;;;;23.80;12.70;;;7.70;99.90;;;;;;6768801;88;20754;-79
2022/03/27 07:03:09;;;;;;;29.10;14.93;;;8.00;99.90;;;;;;6767537;88;20236;-79
2022/03/27 07:13:11;;;;;;;27.90;13.45;;;8.60;99.90;;;;;;6767805;88;20740;-79
2022/03/27 07:23:15;;;;;;;24.80;14.13;;;9.10;99.90;;;;;;6769053;88;20234;-79
2022/03/27 07:33:16;;;;;;;26.55;14.20;;;9.90;99.90;;;;;;6768859;88;20248;-79
2022/03/27 07:43:17;;;;;;;25.48;15.07;;;10.30;99.90;;;;;;6771690;88;20195;-79
2022/03/27 07:53:17;;;;;;;28.73;15.10;;;10.90;99.90;;;;;;6773781;88;20614;-79
2022/03/27 08:03:18;;;;;;;28.35;15.77;;;11.60;99.90;;;;;;6769191;88;20230;-79
2022/03/27 08:13:18;;;;;;;28.10;15.35;;;11.90;99.90;;;;;;6768411;88;20296;-79
2022/03/27 08:23:19;;;;;;;28.00;16.10;;;12.40;99.90;;;;;;6767581;88;20207;-80
2022/03/27 08:33:20;;;;;;;29.73;16.80;;;12.90;99.90;;;;;;6773155;88;20219;-81
2022/03/27 08:43:20;;;;;;;28.30;16.92;;;13.50;99.90;;;;;;6776376;88;20199;-79
2022/03/27 08:53:30;;;;;;;30.37;16.70;;;13.80;99.90;;;;;;6765081;88;20212;-76
2022/03/27 09:03:32;;;;;;;23.83;15.50;;;14.90;99.90;;;;;;6749354;88;20231;-80
2022/03/27 09:13:33;;;;;;;27.45;16.87;;;15.70;99.90;;;;;;6756685;88;20181;-79
2022/03/27 09:23:35;;;;;;;27.25;17.77;;;16.50;99.90;;;;;;6771976;88;20192;-81
2022/03/27 09:33:46;;;;;;;26.62;16.90;;;17.50;99.90;;;;;;6768836;88;20306;-81
2022/03/27 09:44:00;;;;;;;28.67;16.62;;;18.30;97.50;;;;;;6772334;88;21142;-81
2022/03/27 09:54:00;;;;;;;27.10;16.48;;;18.80;96.40;;;;;;6752578;88;20223;-81
2022/03/27 10:04:14;;;;;;;24.75;15.88;;;19.30;96.20;;;;;;6750485;88;20188;-81
2022/03/27 10:14:15;;;;;;;22.92;15.32;;;20.40;94.80;;;;;;6749804;88;20165;-81
2022/03/27 10:24:16;;;;;;;24.95;15.70;;;20.10;94.10;;;;;;6749874;88;20191;-80
2022/03/27 10:34:20;;;;;;;25.77;16.08;;;20.10;93.90;;;;;;6750064;88;20242;-80
2022/03/27 10:44:45;;;;;;;22.60;15.27;;;21.60;92.30;;;;;;6749806;88;20214;-80
2022/03/27 10:55:02;;;;;;;25.30;15.95;;;21.80;91.60;;;;;;6750682;88;20188;-80
2022/03/27 11:05:02;;;;;;;21.67;14.50;;;22.20;90.60;;;;;;6750120;88;20244;-82
2022/03/27 11:15:05;;;;;;;25.37;13.32;;;22.50;89.90;;;;;;6749290;88;20199;-82
2022/03/27 11:25:29;;;;;;;20.25;12.85;;;23.10;89.80;;;;;;6749232;88;20647;-81
2022/03/27 11:35:29;;;;;;;16.90;11.07;;;23.40;88.00;;;;;;6743605;88;20287;-82
2022/03/27 11:45:37;;;;;;;14.65;9.25;;;23.40;86.10;;;;;;6748099;88;20228;-81
2022/03/27 11:55:39;;;;;;;11.90;8.57;;;23.70;85.30;;;;;;6748524;88;20210;-81
2022/03/27 12:05:40;;;;;;;11.10;7.20;;;23.40;85.10;;;;;;6748322;88;20369;-81
2022/03/27 12:15:46;;;;;;;7.30;4.30;;;23.60;84.20;;;;;;6747816;88;20669;-82
2022/03/27 12:37:10;;;;;;;9.23;5.60;;;24.30;81.20;;;;;;6746586;88;20173;-81
2022/03/27 12:47:11;;;;;;;8.93;5.50;;;24.40;79.70;;;;;;6743474;88;20638;-81
2022/03/27 12:57:11;;;;;;;9.75;6.05;;;24.20;80.30;;;;;;6747122;88;20220;-82
2022/03/27 13:07:12;;;;;;;9.32;6.03;;;25.40;78.70;;;;;;6747113;88;20613;-82
2022/03/27 13:17:13;;;;;;;9.63;6.80;;;25.90;76.90;;;;;;6747037;88;20198;-81
2022/03/27 13:27:15;;;;;;;8.45;6.15;;;26.00;75.40;;;;;;6747901;88;20218;-81
2022/03/27 13:37:16;;;;;;;11.77;7.10;;;25.70;76.50;;;;;;6748014;88;20220;-81
2022/03/27 13:47:18;;;;;;;10.00;6.82;;;25.40;76.40;;;;;;6747543;88;20183;-81
2022/03/27 13:57:18;;;;;;;12.05;7.43;;;25.40;76.20;;;;;;6747148;88;20218;-81
2022/03/27 14:07:19;;;;;;;10.38;7.00;;;25.30;76.40;;;;;;6747248;88;20776;-81
2022/03/27 14:17:19;;;;;;;12.10;7.50;;;25.40;76.10;;;;;;6747089;88;20668;-81
2022/03/27 14:27:20;;;;;;;9.88;7.50;;;25.10;76.20;;;;;;6747378;88;20699;-81
2022/03/27 14:37:24;;;;;;;10.55;6.85;;;24.20;77.30;;;;;;6751601;88;20183;-81
2022/03/27 14:47:32;;;;;;;9.38;6.85;;;24.90;77.00;;;;;;6765750;88;20215;-80
2022/03/27 14:57:33;;;;;;;11.18;6.93;;;25.10;76.80;;;;;;6760401;88;20224;-83
2022/03/27 15:07:35;;;;;;;8.20;5.80;;;24.40;78.00;;;;;;6764374;88;20204;-84
2022/03/27 15:17:37;;;;;;;8.35;5.80;;;24.50;77.50;;;;;;6776206;88;20288;-83
2022/03/27 15:27:38;;;;;;;8.18;5.40;;;24.40;78.00;;;;;;6759961;88;20884;-81
2022/03/27 15:37:39;;;;;;;8.20;5.68;;;24.20;78.10;;;;;;6758605;88;20180;-82
2022/03/27 15:47:42;;;;;;;8.20;5.83;;;23.60;79.50;;;;;;6759819;88;20232;-81
2022/03/27 15:57:43;;;;;;;9.70;6.65;;;23.40;79.60;;;;;;6777700;88;20275;-81
2022/03/27 16:07:44;;;;;;;10.65;6.00;;;22.70;80.10;;;;;;6785828;88;20319;-81
2022/03/27 16:17:45;;;;;;;8.00;5.80;;;22.50;81.50;;;;;;6785980;88;20231;-81
2022/03/27 16:27:46;;;;;;;7.50;5.10;;;22.30;81.70;;;;;;6782122;88;20187;-82
2022/03/27 16:37:46;;;;;;;8.63;5.37;;;22.30;81.90;;;;;;6775903;88;20188;-81
2022/03/27 16:47:47;;;;;;;12.75;8.25;;;21.90;82.50;;;;;;6763299;88;20282;-80
2022/03/27 16:57:49;;;;;;;14.15;8.52;;;21.40;84.50;;;;;;6755240;88;20189;-80
2022/03/27 17:07:50;;;;;;;12.25;8.05;;;20.40;86.70;;;;;;6753607;88;20265;-79
2022/03/27 17:17:51;;;;;;;18.20;9.30;;;19.50;90.00;;;;;;6758824;88;20324;-81
2022/03/27 17:27:52;;;;;;;16.27;8.52;;;19.20;90.60;;;;;;6757713;88;20197;-82
2022/03/27 17:37:52;;;;;;;15.70;8.40;;;18.70;91.50;;;;;;6761660;88;20210;-81
2022/03/27 17:47:53;;;;;;;14.82;8.77;;;18.40;92.60;;;;;;6759960;88;20239;-80
2022/03/27 17:57:54;;;;;;;14.40;8.70;;;17.90;93.90;;;;;;6751372;88;20230;-80
2022/03/27 18:07:54;;;;;;;17.30;9.40;;;17.80;95.20;;;;;;6760319;88;20631;-80
2022/03/27 18:17:55;;;;;;;15.63;8.82;;;17.60;96.30;;;;;;6755177;88;20196;-79
2022/03/27 18:27:56;;;;;;;17.20;9.57;;;17.10;98.60;;;;;;6753967;88;20241;-79
2022/03/27 18:37:58;;;;;;;20.85;10.30;;;16.80;99.90;;;;;;6752136;88;20586;-79
2022/03/27 18:47:58;;;;;;;17.50;9.52;;;16.50;99.90;;;;;;6754102;88;20198;-80
2022/03/27 18:57:59;;;;;;;19.42;10.10;;;16.10;99.90;;;;;;6762247;88;20185;-81
2022/03/27 19:08:02;;;;;;;17.42;9.20;;;15.80;99.90;;;;;;6761662;88;20195;-80
2022/03/27 19:18:21;;;;;;;21.12;9.85;;;15.60;99.90;;;;;;6766054;88;20218;-79
2022/03/27 19:28:22;;;;;;;17.50;9.55;;;15.50;99.90;;;;;;6760559;88;20140;-80
2022/03/27 19:38:22;;;;;;;18.60;9.98;;;15.30;99.90;;;;;;6748597;88;20238;-80
2022/03/27 19:48:23;;;;;;;22.20;10.77;;;15.10;99.90;;;;;;6748391;88;20193;-81
2022/03/27 19:58:24;;;;;;;18.08;9.18;;;15.00;99.90;;;;;;6749774;88;20206;-80
2022/03/27 20:08:24;;;;;;;17.77;10.15;;;14.80;99.90;;;;;;6749378;88;20196;-81
2022/03/27 20:18:25;;;;;;;16.65;9.48;;;14.60;99.90;;;;;;6749702;88;20184;-80
2022/03/27 20:28:25;;;;;;;17.92;8.38;;;14.60;99.90;;;;;;6753956;88;20164;-80
2022/03/27 20:48:29;;;;;;;17.10;8.60;;;14.10;99.90;;;;;;6734063;88;20523;-80
2022/03/27 20:58:30;;;;;;;13.98;8.23;;;14.10;99.90;;;;;;6735986;88;20383;-80
2022/03/27 21:08:32;;;;;;;15.13;8.27;;;13.90;99.90;;;;;;6735828;88;20209;-80
2022/03/27 21:18:33;;;;;;;14.30;8.38;;;13.90;99.90;;;;;;6738597;88;20235;-82
2022/03/27 21:28:33;;;;;;;15.98;8.98;;;13.70;99.90;;;;;;6740071;88;20299;-82
2022/03/27 21:38:34;;;;;;;17.08;9.57;;;13.70;99.90;;;;;;6738884;88;20177;-83
2022/03/27 21:48:36;;;;;;;18.98;9.35;;;13.50;99.90;;;;;;6672520;89;20254;-83
2022/03/27 21:58:37;;;;;;;18.90;10.00;;;13.10;99.90;;;;;;6730214;88;20728;-80
2022/03/27 22:08:38;;;;;;;19.52;10.10;;;13.10;99.90;;;;;;6738013;88;20224;-84
2022/03/27 22:18:39;;;;;;;22.62;10.88;;;12.90;99.90;;;;;;6749294;88;20235;-80
2022/03/27 22:28:40;;;;;;;22.37;10.93;;;12.70;99.90;;;;;;6748829;88;20228;-83
2022/03/27 22:38:41;;;;;;;21.17;10.95;;;12.60;99.90;;;;;;6749723;88;20245;-83
2022/03/27 22:48:42;;;;;;;23.62;11.93;;;12.50;99.90;;;;;;6747250;88;20330;-83
2022/03/27 22:58:42;;;;;;;23.75;12.07;;;12.20;99.90;;;;;;6686758;88;20199;-83
2022/03/27 23:08:43;;;;;;;24.77;11.15;;;12.10;99.90;;;;;;6679609;89;20203;-83
2022/03/27 23:18:43;;;;;;;21.37;11.00;;;12.10;99.90;;;;;;6688232;88;20239;-81
2022/03/27 23:28:45;;;;;;;25.83;11.30;;;11.70;99.90;;;;;;6675298;88;20160;-82
2022/03/27 23:38:45;;;;;;;23.08;11.12;;;11.60;99.90;;;;;;6676374;88;20578;-82
2022/03/27 23:48:46;;;;;;;20.83;10.43;;;11.90;99.90;;;;;;6676438;89;20184;-82
2022/03/27 23:58:47;;;;;;;24.25;11.90;;;11.50;99.90;;;;;;6676875;89;20206;-81
